createdAt,value
2018-10-02T00:02:00.137Z," 7.53"
2018-10-02T00:06:55.598Z," 7.48"
2018-10-02T00:11:51.198Z," 7.50"
2018-10-02T00:16:47.846Z," 7.50"
2018-10-02T00:21:44.237Z," 7.47"
2018-10-02T00:26:39.697Z," 7.48"
2018-10-02T00:31:36.563Z," 7.28"
2018-10-02T00:36:32.036Z," 7.36"
2018-10-02T00:41:28.896Z," 7.32"
2018-10-02T00:46:25.019Z," 7.36"
2018-10-02T00:51:20.863Z," 7.33"
2018-10-02T00:56:17.348Z," 7.31"
2018-10-02T01:01:12.904Z," 7.50"
2018-10-02T01:06:09.123Z," 7.63"
2018-10-02T01:11:04.566Z," 7.76"
2018-10-02T01:16:00.352Z," 7.83"
2018-10-02T01:20:56.363Z," 7.76"
2018-10-02T01:25:52.341Z," 7.79"
2018-10-02T01:30:49.235Z," 7.83"
2018-10-02T01:35:45.887Z," 7.94"
2018-10-02T01:40:41.368Z," 8.03"
2018-10-02T01:45:38.188Z," 7.93"
2018-10-02T01:50:33.757Z," 7.98"
2018-10-02T01:55:29.537Z," 7.98"
2018-10-02T02:00:25.481Z," 8.08"
2018-10-02T02:05:22.529Z," 8.09"
2018-10-02T02:10:18.130Z," 8.05"
2018-10-02T02:15:13.890Z," 8.00"
2018-10-02T02:20:09.147Z," 8.00"
2018-10-02T02:25:04.762Z," 7.95"
2018-10-02T02:30:00.445Z," 7.91"
2018-10-02T02:34:55.955Z," 8.13"
2018-10-02T02:39:52.923Z," 8.12"
2018-10-02T02:44:48.169Z," 8.23"
2018-10-02T02:49:44.792Z," 8.23"
2018-10-02T02:54:41.558Z," 8.10"
2018-10-02T02:59:37.127Z," 8.13"
2018-10-02T03:04:33.756Z," 8.20"
2018-10-02T03:09:29.232Z," 8.23"
2018-10-02T03:14:25.091Z," 8.24"
2018-10-02T03:19:20.456Z," 8.28"
2018-10-02T03:24:17.434Z," 8.30"
2018-10-02T03:29:13.242Z," 8.37"
2018-10-02T03:34:09.092Z," 8.41"
2018-10-02T03:39:04.521Z," 8.46"
2018-10-02T03:44:01.290Z," 8.52"
2018-10-02T03:48:57.261Z," 8.49"
2018-10-02T03:53:53.047Z," 8.53"
2018-10-02T03:58:48.813Z," 8.55"
2018-10-02T04:03:45.697Z," 8.63"
2018-10-02T04:08:41.822Z," 8.70"
2018-10-02T04:13:37.679Z," 8.69"
2018-10-02T04:18:33.429Z," 8.70"
2018-10-02T04:23:29.383Z," 8.82"
2018-10-02T04:28:25.231Z," 8.71"
2018-10-02T04:33:20.920Z," 8.76"
2018-10-02T04:38:16.743Z," 8.85"
2018-10-02T04:43:13.173Z," 8.84"
2018-10-02T04:48:08.674Z," 8.89"
2018-10-02T04:53:04.525Z," 8.91"
2018-10-02T04:58:01.388Z," 8.94"
2018-10-02T05:02:56.796Z," 8.88"
2018-10-02T05:07:52.613Z," 8.91"
2018-10-02T05:12:49.393Z," 8.92"
2018-10-02T05:17:44.949Z," 8.85"
2018-10-02T05:22:40.746Z," 8.82"
2018-10-02T05:27:36.597Z," 8.84"
2018-10-02T05:32:32.994Z," 8.91"
2018-10-02T05:37:29.894Z," 8.89"
2018-10-02T05:42:25.484Z," 8.87"
2018-10-02T05:47:21.118Z," 8.84"
2018-10-02T05:52:18.889Z," 8.76"
2018-10-02T05:57:13.941Z," 8.74"
2018-10-02T06:02:09.880Z," 8.73"
2018-10-02T06:07:05.541Z," 8.74"
2018-10-02T06:12:02.523Z," 8.74"
2018-10-02T06:16:58.545Z," 8.66"
2018-10-02T06:21:54.455Z," 8.73"
2018-10-02T06:26:51.154Z," 8.78"
2018-10-02T06:31:46.857Z," 8.71"
2018-10-02T06:36:42.684Z," 8.67"
2018-10-02T06:41:38.486Z," 8.76"
2018-10-02T06:46:34.861Z," 8.60"
2018-10-02T06:51:31.460Z," 8.53"
2018-10-02T06:56:28.368Z," 8.61"
2018-10-02T07:01:23.689Z," 8.64"
2018-10-02T07:06:21.189Z," 8.63"
2018-10-02T07:11:16.797Z," 8.63"
2018-10-02T07:16:13.811Z," 8.78"
2018-10-02T07:21:09.836Z," 8.69"
2018-10-02T07:26:05.833Z," 8.71"
2018-10-02T07:31:01.776Z," 8.76"
2018-10-02T07:35:57.595Z," 8.79"
2018-10-02T07:40:53.408Z," 8.84"
2018-10-02T07:45:49.119Z," 8.84"
2018-10-02T07:50:44.997Z," 8.89"
2018-10-02T07:55:42.069Z," 8.88"
2018-10-02T08:00:37.714Z," 9.03"
2018-10-02T08:05:33.605Z," 8.94"
2018-10-02T08:10:30.395Z," 9.02"
2018-10-02T08:15:25.834Z," 8.95"
2018-10-02T08:20:22.287Z," 9.03"
2018-10-02T08:25:17.884Z," 9.08"
2018-10-02T08:30:15.344Z," 8.97"
2018-10-02T08:35:11.072Z," 9.14"
2018-10-02T08:40:07.104Z," 9.25"
2018-10-02T08:45:02.881Z," 9.29"
2018-10-02T08:49:59.365Z," 9.16"
2018-10-02T08:54:54.928Z," 9.11"
2018-10-02T08:59:51.487Z," 9.22"
2018-10-02T09:04:47.298Z," 9.23"
2018-10-02T09:09:43.050Z," 9.18"
2018-10-02T09:14:39.008Z," 9.19"
2018-10-02T09:19:36.299Z," 9.28"
2018-10-02T09:24:32.224Z," 9.31"
2018-10-02T09:29:27.590Z," 9.28"
2018-10-02T09:34:23.602Z," 9.21"
2018-10-02T09:39:19.324Z," 9.31"
2018-10-02T09:44:16.166Z," 9.36"
2018-10-02T09:49:12.070Z," 9.41"
2018-10-02T09:54:07.925Z," 9.51"
2018-10-02T09:59:03.683Z," 9.50"
2018-10-02T10:03:59.630Z," 9.54"
2018-10-02T10:08:55.215Z," 9.56"
2018-10-02T10:13:50.988Z," 9.64"
2018-10-02T10:18:47.503Z," 9.61"
2018-10-02T10:23:44.038Z," 9.55"
2018-10-02T10:28:39.662Z," 9.58"
2018-10-02T10:33:37.812Z," 9.66"
2018-10-02T10:38:32.982Z," 9.54"
2018-10-02T10:43:29.798Z," 9.55"
2018-10-02T10:48:26.329Z," 9.69"
2018-10-02T10:53:23.388Z," 9.61"
2018-10-02T10:58:19.562Z," 9.74"
2018-10-02T11:03:15.728Z," 9.79"
2018-10-02T11:08:11.814Z," 9.86"
2018-10-02T11:13:07.787Z," 9.91"
2018-10-02T11:18:05.498Z," 9.89"
2018-10-02T11:23:02.622Z," 9.98"
2018-10-02T11:27:58.182Z,10.05
2018-10-02T11:32:54.126Z,10.04
2018-10-02T11:37:51.220Z,10.19
2018-10-02T11:42:47.900Z,10.19
2018-10-02T11:47:43.502Z,10.38
2018-10-02T11:52:40.427Z,10.31
2018-10-02T11:57:36.166Z,10.46
2018-10-02T12:02:32.053Z,10.53
2018-10-02T12:07:28.879Z,10.49
2018-10-02T12:12:24.402Z,10.60
2018-10-02T12:17:20.528Z,10.71
2018-10-02T12:22:16.896Z,10.72
2018-10-02T12:27:12.693Z,10.89
2018-10-02T12:32:08.582Z,10.89
2018-10-02T12:37:05.020Z,10.92
2018-10-02T12:42:00.733Z,11.07
2018-10-02T12:46:56.773Z,11.19
2018-10-02T12:51:52.750Z,11.23
2018-10-02T12:56:48.889Z,11.50
2018-10-02T13:01:45.660Z,11.51
2018-10-02T13:06:42.835Z,11.66
2018-10-02T13:11:39.056Z,11.68
2018-10-02T13:16:34.363Z,11.60
2018-10-02T13:21:31.456Z,11.72
2018-10-02T13:26:28.786Z,11.80
2018-10-02T13:31:24.554Z,11.83
2018-10-02T13:36:20.434Z,11.88
2018-10-02T13:41:16.246Z,11.94
2018-10-02T13:46:12.696Z,11.97
2018-10-02T13:51:08.594Z,12.20
2018-10-02T13:56:04.405Z,12.22
2018-10-02T14:01:01.057Z,12.28
2018-10-02T14:05:56.987Z,12.43
2018-10-02T14:10:52.865Z,12.57
2018-10-02T14:15:49.984Z,12.70
2018-10-02T14:20:45.535Z,12.87
2018-10-02T14:25:42.305Z,12.83
2018-10-02T14:30:38.075Z,12.86
2018-10-02T14:35:34.824Z,12.87
2018-10-02T14:40:30.815Z,12.94
2018-10-02T14:45:27.235Z,13.08
2018-10-02T14:50:24.748Z,13.18
2018-10-02T14:55:20.343Z,13.20
2018-10-02T15:00:18.081Z,13.33
2018-10-02T15:05:15.167Z,13.27
2018-10-02T15:10:11.433Z,13.28
2018-10-02T15:15:08.399Z,13.52
2018-10-02T15:20:04.692Z,13.63
2018-10-02T15:25:00.565Z,13.74
2018-10-02T15:29:56.545Z,13.86
2018-10-02T15:34:52.065Z,13.95
2018-10-02T15:39:47.769Z,13.96
2018-10-02T15:44:44.071Z,14.08
2018-10-02T15:49:39.975Z,14.04
2018-10-02T15:54:35.792Z,13.99
2018-10-02T15:59:31.350Z,13.87
2018-10-02T16:04:27.333Z,13.92
2018-10-02T16:09:24.325Z,14.00
2018-10-02T16:14:19.857Z,13.97
2018-10-02T16:19:15.673Z,13.86
2018-10-02T16:24:11.664Z,13.85
2018-10-02T16:29:07.597Z,13.89
2018-10-02T16:34:03.522Z,13.79
2018-10-02T16:38:59.352Z,13.74
2018-10-02T16:43:55.175Z,13.83
2018-10-02T16:48:51.100Z,13.77
2018-10-02T16:53:47.112Z,13.90
2018-10-02T16:58:42.991Z,13.79
2018-10-02T17:03:38.527Z,13.79
2018-10-02T17:08:35.317Z,13.83
2018-10-02T17:13:31.660Z,13.72
2018-10-02T17:18:27.232Z,13.75
2018-10-02T17:23:24.698Z,13.62
2018-10-02T17:28:20.523Z,13.47
2018-10-02T17:33:16.374Z,13.50
2018-10-02T17:38:12.989Z,13.46
2018-10-02T17:43:09.525Z,13.38
2018-10-02T17:48:05.982Z,13.25
2018-10-02T17:53:02.449Z,13.28
2018-10-02T17:57:58.849Z,13.23
2018-10-02T18:02:55.516Z,13.23
2018-10-02T18:07:52.035Z,13.15
2018-10-02T18:12:48.738Z,13.09
2018-10-02T18:17:44.854Z,13.05
2018-10-02T18:22:40.819Z,13.05
2018-10-02T18:27:36.816Z,13.04
2018-10-02T18:32:33.675Z,13.03
2018-10-02T18:37:29.296Z,12.90
2018-10-02T18:42:25.006Z,12.79
2018-10-02T18:47:20.633Z,12.78
2018-10-02T18:52:17.431Z,12.72
2018-10-02T18:57:12.688Z,12.49
2018-10-02T19:02:09.793Z,12.39
2018-10-02T19:07:05.496Z,12.40
2018-10-02T19:12:02.489Z,12.36
2018-10-02T19:16:58.122Z,12.37
2018-10-02T19:21:53.779Z,12.25
2018-10-02T19:26:49.208Z,12.27
2018-10-02T19:31:45.177Z,12.18
2018-10-02T19:36:41.019Z,12.21
2018-10-02T19:41:36.684Z,12.17
2018-10-02T19:46:32.954Z,12.04
2018-10-02T19:51:28.567Z,11.91
2018-10-02T19:56:25.497Z,11.94
2018-10-02T20:01:21.890Z,12.02
2018-10-02T20:06:16.960Z,11.88
2018-10-02T20:11:13.103Z,11.87
2018-10-02T20:16:08.861Z,11.91
2018-10-02T20:21:04.868Z,11.99
2018-10-02T20:26:00.827Z,11.99
2018-10-02T20:30:57.460Z,12.13
2018-10-02T20:35:53.188Z,12.09
2018-10-02T20:40:48.932Z,12.13
2018-10-02T20:45:44.780Z,12.18
2018-10-02T20:50:40.670Z,12.13
2018-10-02T20:55:36.524Z,12.18
2018-10-02T21:00:33.605Z,12.03
2018-10-02T21:05:28.876Z,11.94
2018-10-02T21:10:24.615Z,11.99
2018-10-02T21:15:21.528Z,11.90
2018-10-02T21:20:17.285Z,11.97
2018-10-02T21:25:13.048Z,12.07
2018-10-02T21:30:09.672Z,11.97
2018-10-02T21:35:05.258Z,11.86
2018-10-02T21:40:01.471Z,12.00
2018-10-02T21:44:58.132Z,11.87
2018-10-02T21:49:53.646Z,11.87
2018-10-02T21:54:51.263Z,11.83
2018-10-02T21:59:46.706Z,11.73
2018-10-02T22:04:42.671Z,11.86
2018-10-02T22:09:39.467Z,11.77
2018-10-02T22:14:34.990Z,11.72
2018-10-02T22:19:30.709Z,11.57
2018-10-02T22:24:26.346Z,11.52
2018-10-02T22:29:22.458Z,11.48
2018-10-02T22:34:18.280Z,11.51
2018-10-02T22:39:14.069Z,11.50
2018-10-02T22:44:09.855Z,11.41
2018-10-02T22:49:06.282Z,11.48
2018-10-02T22:54:03.030Z,11.44
2018-10-02T22:58:59.517Z,11.40
2018-10-02T23:03:55.041Z,11.36
2018-10-02T23:08:52.488Z,11.32
2018-10-02T23:13:48.555Z,11.29
2018-10-02T23:18:44.322Z,11.30
2018-10-02T23:23:39.717Z,11.14
2018-10-02T23:28:35.956Z,11.17
2018-10-02T23:33:31.897Z,11.11
2018-10-02T23:38:27.649Z,11.10
2018-10-02T23:43:24.166Z,11.11
2018-10-02T23:48:19.697Z,11.00
2018-10-02T23:53:17.341Z,10.93
2018-10-02T23:58:13.907Z,10.94
